Time;durP1;ratioP1;P1;durP2;ratioP2;P2;SDS_P1;SDS_P2;PMS_P1;PMS_P2;Temp;Humidity;BMP_temperature;BMP_pressure;BME280_temperature;BME280_humidity;BME280_pressure;Samples;Min_cycle;Max_cycle;Signal;HPM_P1;HPM_P2
2023/09/20 00:00:29;;;;;;;2.13;1.90;;;12.20;99.90;;;;;;5039035;28;20033;-32
2023/09/20 00:02:55;;;;;;;1.95;1.60;;;12.20;99.90;;;;;;5048210;28;20717;-31
2023/09/20 00:05:21;;;;;;;1.50;1.40;;;12.20;99.90;;;;;;5043801;28;20040;-33
2023/09/20 00:07:50;;;;;;;1.50;1.40;;;12.20;99.90;;;;;;5044702;28;20028;-34
2023/09/20 00:10:18;;;;;;;1.70;1.60;;;12.30;99.90;;;;;;5037887;28;20237;-29
2023/09/20 00:12:44;;;;;;;2.10;1.60;;;12.30;99.90;;;;;;5044386;28;20027;-30
2023/09/20 00:15:10;;;;;;;2.47;1.77;;;12.40;99.90;;;;;;5044793;28;20057;-30
2023/09/20 00:17:36;;;;;;;1.70;1.60;;;12.40;99.90;;;;;;5050651;28;20368;-31
2023/09/20 00:20:11;;;;;;;1.80;1.70;;;12.40;99.90;;;;;;5036311;28;20025;-30
2023/09/20 00:22:40;;;;;;;1.75;1.52;;;12.30;99.90;;;;;;5043878;28;20650;-30
2023/09/20 00:25:07;;;;;;;1.65;1.55;;;12.30;99.90;;;;;;5048269;28;20036;-33
2023/09/20 00:27:33;;;;;;;2.30;1.63;;;12.10;99.90;;;;;;5043306;28;20698;-31
2023/09/20 00:29:58;;;;;;;1.92;1.70;;;12.20;99.90;;;;;;5049214;28;20021;-34
2023/09/20 00:32:24;;;;;;;2.10;1.90;;;12.00;99.90;;;;;;5048215;28;20549;-30
2023/09/20 00:34:50;;;;;;;3.35;1.88;;;12.00;99.90;;;;;;5047701;28;20111;-30
2023/09/20 00:37:16;;;;;;;1.70;1.60;;;12.00;99.90;;;;;;5039173;28;20033;-34
2023/09/20 00:39:41;;;;;;;1.90;1.80;;;12.00;99.90;;;;;;5035130;28;20632;-36
2023/09/20 00:42:08;;;;;;;1.55;1.45;;;12.10;99.90;;;;;;5034554;28;20033;-35
2023/09/20 00:44:35;;;;;;;1.77;1.60;;;12.20;99.90;;;;;;5033154;28;20103;-37
2023/09/20 00:47:03;;;;;;;2.00;1.80;;;12.20;99.90;;;;;;5035063;28;20040;-40
2023/09/20 00:49:29;;;;;;;;;;;12.20;99.90;;;;;;5032790;28;20037;-38
2023/09/20 00:51:55;;;;;;;2.45;1.67;;;12.20;99.90;;;;;;5045879;28;19931;-41
2023/09/20 00:54:22;;;;;;;2.05;1.70;;;12.30;99.90;;;;;;5044432;28;20037;-41
2023/09/20 00:56:47;;;;;;;1.70;1.60;;;12.30;99.90;;;;;;5047300;28;20033;-37
2023/09/20 00:59:15;;;;;;;4.03;1.70;;;12.30;99.90;;;;;;5046363;28;20033;-37
2023/09/20 01:01:41;;;;;;;1.95;1.52;;;12.30;99.90;;;;;;5039538;28;20523;-38
2023/09/20 01:04:08;;;;;;;1.58;1.48;;;12.30;99.90;;;;;;5021611;28;20120;-35
2023/09/20 01:06:34;;;;;;;1.88;1.70;;;12.30;99.90;;;;;;5019201;28;20490;-39
2023/09/20 01:09:00;;;;;;;2.03;1.88;;;12.10;99.90;;;;;;5020744;28;20018;-39
2023/09/20 01:11:26;;;;;;;2.28;1.70;;;11.90;99.90;;;;;;5024490;28;20026;-39
2023/09/20 01:13:52;;;;;;;1.55;1.45;;;11.80;99.90;;;;;;5024572;28;20034;-40
2023/09/20 01:16:18;;;;;;;1.85;1.70;;;11.70;99.90;;;;;;5023028;28;20045;-39
2023/09/20 01:18:44;;;;;;;2.15;1.90;;;11.60;99.90;;;;;;5026377;28;20045;-39
2023/09/20 01:21:11;;;;;;;2.38;2.17;;;11.50;99.90;;;;;;5023942;28;20084;-40
2023/09/20 01:23:38;;;;;;;1.80;1.60;;;11.60;99.90;;;;;;5022933;28;20034;-40
2023/09/20 01:26:04;;;;;;;1.80;1.70;;;11.70;99.90;;;;;;5022702;28;20089;-40
2023/09/20 01:28:30;;;;;;;1.33;1.27;;;11.70;99.90;;;;;;5023337;28;20032;-40
2023/09/20 01:30:58;;;;;;;1.75;1.60;;;11.70;99.90;;;;;;5025722;28;20414;-35
2023/09/20 01:33:24;;;;;;;2.10;2.00;;;11.70;99.90;;;;;;5048137;28;20025;-40
2023/09/20 01:35:50;;;;;;;1.70;1.60;;;11.70;99.90;;;;;;5042087;28;20036;-40
2023/09/20 01:38:15;;;;;;;2.33;1.70;;;11.80;99.90;;;;;;5043531;28;20029;-40
2023/09/20 01:40:41;;;;;;;1.50;1.40;;;11.80;99.90;;;;;;5053656;28;20402;-39
2023/09/20 01:43:07;;;;;;;1.77;1.67;;;11.70;99.90;;;;;;5048037;28;20040;-39
2023/09/20 01:45:34;;;;;;;1.60;1.50;;;11.60;99.90;;;;;;5047006;28;20533;-39
2023/09/20 01:48:00;;;;;;;1.80;1.70;;;11.70;99.90;;;;;;5047213;28;20446;-36
2023/09/20 01:50:27;;;;;;;2.13;1.75;;;11.70;99.90;;;;;;5047858;28;20028;-38
2023/09/20 01:52:57;;;;;;;1.95;1.42;;;11.70;99.90;;;;;;5047528;28;20028;-40
2023/09/20 01:55:25;;;;;;;1.30;1.30;;;11.70;99.90;;;;;;5049287;28;20013;-34
2023/09/20 01:57:51;;;;;;;1.52;1.42;;;11.70;99.90;;;;;;5047462;28;20040;-33
2023/09/20 02:00:22;;;;;;;1.60;1.50;;;11.70;99.90;;;;;;5046128;28;20029;-34
2023/09/20 02:02:49;;;;;;;1.95;1.65;;;11.70;99.90;;;;;;5046194;28;20054;-34
2023/09/20 02:05:17;;;;;;;1.60;1.50;;;11.80;99.90;;;;;;5045198;28;20037;-32
2023/09/20 02:07:46;;;;;;;2.58;1.60;;;11.70;99.90;;;;;;5046097;28;20084;-33
2023/09/20 02:10:13;;;;;;;1.60;1.50;;;11.70;99.90;;;;;;5046357;28;20033;-34
2023/09/20 02:12:40;;;;;;;3.23;1.53;;;11.70;99.90;;;;;;5040798;28;20383;-34
2023/09/20 02:15:07;;;;;;;1.63;1.35;;;11.50;99.90;;;;;;5043031;28;20703;-34
2023/09/20 02:17:35;;;;;;;3.20;1.30;;;11.50;99.90;;;;;;5047729;28;20033;-32
2023/09/20 02:20:08;;;;;;;1.45;1.35;;;11.50;99.90;;;;;;5077249;28;20025;-30
2023/09/20 02:22:35;;;;;;;2.45;1.60;;;11.50;99.90;;;;;;5049576;28;20036;-31
2023/09/20 02:25:03;;;;;;;1.33;1.33;;;11.40;99.90;;;;;;5049737;28;20033;-30
2023/09/20 02:27:30;;;;;;;1.80;1.70;;;11.30;99.90;;;;;;5047007;28;20028;-30
2023/09/20 02:29:56;;;;;;;1.70;1.60;;;11.30;99.90;;;;;;5043566;28;20045;-34
2023/09/20 02:32:23;;;;;;;1.65;1.55;;;11.20;99.90;;;;;;5050267;28;20037;-31
2023/09/20 02:34:49;;;;;;;1.73;1.25;;;11.20;99.90;;;;;;5047238;28;20023;-30
2023/09/20 02:37:15;;;;;;;2.00;1.55;;;11.30;99.90;;;;;;5042772;28;20033;-34
2023/09/20 02:39:40;;;;;;;1.58;1.48;;;11.30;99.90;;;;;;5046771;28;20024;-31
2023/09/20 02:42:06;;;;;;;3.53;1.70;;;11.30;99.90;;;;;;5048619;28;20572;-29
2023/09/20 02:44:32;;;;;;;3.78;1.95;;;11.40;99.90;;;;;;5045189;28;20084;-30
2023/09/20 02:46:59;;;;;;;1.85;1.75;;;11.40;99.90;;;;;;5045369;28;20437;-29
2023/09/20 02:49:24;;;;;;;1.95;1.77;;;11.40;99.90;;;;;;5045217;28;20028;-31
2023/09/20 02:51:51;;;;;;;2.55;1.70;;;11.40;99.90;;;;;;5043806;28;20021;-30
2023/09/20 02:54:17;;;;;;;1.50;1.40;;;11.30;99.90;;;;;;5045159;28;20033;-32
2023/09/20 02:56:44;;;;;;;1.80;1.70;;;11.20;99.90;;;;;;5048235;28;20036;-31
2023/09/20 02:59:10;;;;;;;1.60;1.50;;;11.10;99.90;;;;;;5046138;28;20028;-30
2023/09/20 03:01:36;;;;;;;1.30;1.30;;;11.20;99.90;;;;;;5045525;28;20482;-30
2023/09/20 03:04:03;;;;;;;1.20;1.20;;;11.20;99.90;;;;;;5045969;28;20517;-40
2023/09/20 03:06:29;;;;;;;1.70;1.60;;;11.20;99.90;;;;;;5042753;28;20626;-39
2023/09/20 03:08:55;;;;;;;1.98;1.70;;;11.20;99.90;;;;;;5044610;28;20106;-40
2023/09/20 03:11:21;;;;;;;1.80;1.45;;;11.10;99.90;;;;;;5046039;28;20558;-36
2023/09/20 03:13:48;;;;;;;1.50;1.40;;;11.10;99.90;;;;;;5045307;28;20119;-40
2023/09/20 03:16:21;;;;;;;1.58;1.45;;;11.10;99.90;;;;;;5045126;28;20033;-40
2023/09/20 03:18:49;;;;;;;1.67;1.30;;;11.00;99.90;;;;;;5038065;28;20091;-38
2023/09/20 03:21:14;;;;;;;1.42;1.33;;;11.00;99.90;;;;;;5038322;28;20025;-40
2023/09/20 03:23:40;;;;;;;2.17;1.48;;;11.00;99.90;;;;;;5043908;28;20498;-32
2023/09/20 03:26:06;;;;;;;1.67;1.50;;;11.00;99.90;;;;;;5042936;28;20501;-33
2023/09/20 03:28:35;;;;;;;1.52;1.42;;;10.90;99.90;;;;;;5046394;28;20091;-35
2023/09/20 03:31:06;;;;;;;1.40;1.30;;;10.80;99.90;;;;;;5035051;28;20372;-35
2023/09/20 03:33:32;;;;;;;1.30;1.20;;;10.80;99.90;;;;;;5022363;28;20034;-34
2023/09/20 03:36:09;;;;;;;0.93;0.93;;;10.70;99.90;;;;;;5029341;28;20041;-34
2023/09/20 03:38:35;;;;;;;1.77;1.40;;;10.60;99.90;;;;;;5026377;28;20029;-33
2023/09/20 03:41:01;;;;;;;1.45;1.33;;;10.70;99.90;;;;;;5027459;28;20029;-36
2023/09/20 03:43:27;;;;;;;1.30;1.20;;;10.70;99.90;;;;;;5026644;28;20045;-34
2023/09/20 03:45:54;;;;;;;1.40;1.30;;;10.60;99.90;;;;;;5026902;28;20410;-33
2023/09/20 03:48:20;;;;;;;1.30;1.20;;;10.60;99.90;;;;;;5028966;28;20068;-33
2023/09/20 03:50:46;;;;;;;1.90;1.30;;;10.60;99.90;;;;;;5030238;28;20474;-35
2023/09/20 03:53:12;;;;;;;1.30;1.20;;;10.70;99.90;;;;;;5030572;28;20060;-35
2023/09/20 03:55:37;;;;;;;1.33;1.20;;;10.70;99.90;;;;;;5029369;28;20028;-32
2023/09/20 03:58:03;;;;;;;1.50;1.40;;;10.70;99.90;;;;;;5028971;28;20490;-32
2023/09/20 04:00:31;;;;;;;1.42;1.33;;;10.80;99.90;;;;;;5029944;28;20036;-33
2023/09/20 04:02:58;;;;;;;1.70;1.60;;;10.80;99.90;;;;;;5049875;28;20071;-37
2023/09/20 04:05:24;;;;;;;1.48;1.38;;;10.60;99.90;;;;;;5049313;28;20116;-33
2023/09/20 04:07:50;;;;;;;1.30;1.25;;;10.70;99.90;;;;;;5046073;28;20037;-32
2023/09/20 04:10:18;;;;;;;1.65;1.55;;;10.60;99.90;;;;;;5043586;28;20118;-33
2023/09/20 04:12:46;;;;;;;3.25;1.70;;;10.70;99.90;;;;;;5042700;28;20029;-33
2023/09/20 04:15:12;;;;;;;;;;;10.70;99.90;;;;;;5049552;28;20386;-33
2023/09/20 04:17:38;;;;;;;2.30;1.60;;;10.80;99.90;;;;;;5047851;28;19918;-32
2023/09/20 04:20:05;;;;;;;4.22;1.83;;;10.80;99.90;;;;;;5047127;28;20052;-34
2023/09/20 04:22:36;;;;;;;2.45;1.80;;;10.70;99.90;;;;;;5043473;28;20489;-33
2023/09/20 04:25:03;;;;;;;1.42;1.33;;;10.70;99.90;;;;;;5047699;28;20035;-34
2023/09/20 04:27:28;;;;;;;1.67;1.58;;;10.70;99.90;;;;;;5045814;28;20039;-32
2023/09/20 04:29:54;;;;;;;2.10;1.42;;;10.70;99.90;;;;;;5048007;28;20328;-34
2023/09/20 04:32:20;;;;;;;1.67;1.35;;;10.70;99.90;;;;;;5043535;28;20159;-32
2023/09/20 04:34:45;;;;;;;6.45;1.48;;;10.50;99.90;;;;;;5048150;28;20026;-33
2023/09/20 04:37:13;;;;;;;1.00;1.00;;;10.50;99.90;;;;;;5041113;28;20060;-32
2023/09/20 04:39:39;;;;;;;0.90;0.80;;;10.30;99.90;;;;;;5042642;28;20870;-33
2023/09/20 04:42:07;;;;;;;0.88;0.88;;;10.40;99.90;;;;;;5049435;28;20034;-33
2023/09/20 04:44:33;;;;;;;1.40;1.35;;;10.40;99.90;;;;;;5048295;28;20069;-32
2023/09/20 04:46:58;;;;;;;1.98;1.85;;;10.50;99.90;;;;;;5047122;28;20064;-32
2023/09/20 04:49:24;;;;;;;1.90;1.30;;;10.50;99.90;;;;;;5047708;28;20082;-32
2023/09/20 04:51:50;;;;;;;1.30;1.30;;;10.50;99.90;;;;;;5047641;28;20033;-32
2023/09/20 04:54:15;;;;;;;1.40;1.30;;;10.60;99.90;;;;;;5044818;28;20094;-32
2023/09/20 04:56:47;;;;;;;1.48;1.30;;;10.60;99.90;;;;;;5045262;28;20029;-35
2023/09/20 04:59:14;;;;;;;1.40;1.30;;;10.60;99.90;;;;;;5043055;28;20021;-36
2023/09/20 05:01:42;;;;;;;1.45;1.35;;;10.60;99.90;;;;;;5045823;28;21058;-34
2023/09/20 05:04:15;;;;;;;2.57;1.50;;;10.60;99.90;;;;;;5046851;28;20626;-37
2023/09/20 05:06:42;;;;;;;2.05;1.38;;;10.60;99.90;;;;;;5044464;28;20075;-35
2023/09/20 05:09:08;;;;;;;1.33;1.23;;;10.50;99.90;;;;;;5044597;28;20124;-38
2023/09/20 05:11:34;;;;;;;1.52;1.40;;;10.40;99.90;;;;;;5044606;28;20029;-32
2023/09/20 05:14:00;;;;;;;1.48;1.38;;;10.40;99.90;;;;;;5043708;28;20052;-33
2023/09/20 05:16:26;;;;;;;1.92;1.35;;;10.20;99.90;;;;;;5043816;28;20483;-34
2023/09/20 05:18:52;;;;;;;1.45;1.20;;;10.10;99.90;;;;;;5046334;28;20059;-34
2023/09/20 05:21:18;;;;;;;1.00;1.00;;;10.00;99.90;;;;;;5048137;28;20072;-34
2023/09/20 05:23:43;;;;;;;0.90;0.90;;;10.00;99.90;;;;;;5044444;28;20100;-37
2023/09/20 05:26:09;;;;;;;1.10;1.10;;;9.90;99.90;;;;;;5042547;28;20387;-37
2023/09/20 05:28:35;;;;;;;1.02;1.02;;;9.90;99.90;;;;;;5042513;28;20402;-38
2023/09/20 05:31:05;;;;;;;1.45;1.35;;;10.00;99.90;;;;;;5041330;28;20098;-33
2023/09/20 05:33:30;;;;;;;1.35;1.25;;;10.00;99.90;;;;;;5049472;28;20025;-41
2023/09/20 05:35:57;;;;;;;1.25;1.25;;;10.10;99.90;;;;;;5050148;28;20031;-36
2023/09/20 05:38:26;;;;;;;1.40;1.30;;;10.10;99.90;;;;;;5047055;28;20055;-41
2023/09/20 05:40:52;;;;;;;2.88;1.50;;;10.20;99.90;;;;;;5046389;28;20051;-41
2023/09/20 05:43:18;;;;;;;1.33;1.33;;;10.30;99.90;;;;;;5045944;28;20321;-40
2023/09/20 05:45:43;;;;;;;1.40;1.30;;;10.10;99.90;;;;;;5050640;28;20033;-34
2023/09/20 05:48:12;;;;;;;2.17;1.33;;;10.00;99.90;;;;;;5045853;28;20033;-37
2023/09/20 05:50:40;;;;;;;1.80;1.50;;;10.10;99.90;;;;;;5064648;28;20491;-32
2023/09/20 05:53:07;;;;;;;2.15;1.63;;;10.10;99.90;;;;;;5046202;28;20114;-32
2023/09/20 05:55:37;;;;;;;2.17;1.58;;;10.10;99.90;;;;;;5042865;28;20029;-34
2023/09/20 05:58:04;;;;;;;1.60;1.42;;;10.20;99.90;;;;;;5061674;28;20025;-36
2023/09/20 06:00:30;;;;;;;1.67;1.58;;;10.20;99.90;;;;;;5045185;28;20148;-35
2023/09/20 06:02:59;;;;;;;1.92;1.83;;;10.40;99.90;;;;;;5048744;28;20037;-37
2023/09/20 06:05:26;;;;;;;1.98;1.85;;;10.40;99.90;;;;;;5045011;28;20076;-33
2023/09/20 06:07:55;;;;;;;1.83;1.70;;;10.50;99.90;;;;;;5044264;28;20043;-34
2023/09/20 06:10:22;;;;;;;2.50;1.80;;;10.60;99.90;;;;;;5041807;28;20082;-32
2023/09/20 06:12:50;;;;;;;2.37;2.00;;;10.60;99.90;;;;;;5044519;28;20053;-36
2023/09/20 06:15:16;;;;;;;6.10;2.10;;;10.70;99.90;;;;;;5051263;28;20037;-32
2023/09/20 06:17:43;;;;;;;2.13;1.67;;;10.80;99.90;;;;;;5059086;28;20025;-35
2023/09/20 06:20:12;;;;;;;1.98;1.88;;;10.90;99.90;;;;;;5045002;28;20508;-38
2023/09/20 06:22:42;;;;;;;1.75;1.60;;;11.00;99.90;;;;;;5036386;28;20055;-32
2023/09/20 06:25:08;;;;;;;2.30;2.10;;;11.10;99.90;;;;;;5044500;28;20033;-36
2023/09/20 06:27:34;;;;;;;1.90;1.80;;;11.20;99.90;;;;;;5044446;28;20021;-32
2023/09/20 06:30:07;;;;;;;3.47;1.80;;;11.30;99.90;;;;;;5045540;28;20482;-32
2023/09/20 06:32:33;;;;;;;2.45;2.00;;;11.40;99.90;;;;;;5041783;28;20525;-34
2023/09/20 06:35:07;;;;;;;2.15;1.95;;;11.50;99.90;;;;;;5043761;28;20028;-32
2023/09/20 06:37:37;;;;;;;3.22;2.17;;;11.60;99.90;;;;;;5040797;28;20029;-31
2023/09/20 06:40:03;;;;;;;3.65;1.98;;;11.70;99.90;;;;;;5043567;28;20028;-30
2023/09/20 06:42:30;;;;;;;1.95;1.80;;;11.80;99.90;;;;;;5047617;28;20374;-29
2023/09/20 06:44:56;;;;;;;2.42;2.22;;;11.90;99.90;;;;;;5044396;28;20055;-35
2023/09/20 06:47:23;;;;;;;2.67;1.92;;;12.00;99.90;;;;;;5042634;28;20037;-32
2023/09/20 06:49:48;;;;;;;2.47;2.13;;;12.20;99.90;;;;;;5044148;28;20029;-31
2023/09/20 06:52:14;;;;;;;2.35;2.15;;;12.20;99.90;;;;;;5044151;28;20147;-33
2023/09/20 06:54:39;;;;;;;2.75;1.80;;;12.30;99.90;;;;;;5041988;28;20466;-33
2023/09/20 06:57:05;;;;;;;2.45;2.25;;;12.40;99.90;;;;;;5042119;28;20376;-30
2023/09/20 06:59:33;;;;;;;2.35;1.95;;;12.50;99.90;;;;;;5042838;28;20390;-30
2023/09/20 07:01:59;;;;;;;2.97;2.03;;;12.60;99.90;;;;;;5044381;28;20877;-31
2023/09/20 07:04:25;;;;;;;2.97;2.22;;;12.60;99.90;;;;;;5045186;28;20041;-31
2023/09/20 07:06:57;;;;;;;4.55;2.30;;;12.70;99.90;;;;;;5046557;28;20751;-31
2023/09/20 07:09:23;;;;;;;3.40;2.58;;;12.80;99.90;;;;;;5042186;28;20592;-30
2023/09/20 07:11:53;;;;;;;2.53;2.25;;;13.00;99.90;;;;;;5044442;28;20021;-32
2023/09/20 07:14:23;;;;;;;3.30;2.40;;;13.10;99.90;;;;;;5041817;28;20083;-34
2023/09/20 07:16:52;;;;;;;3.00;2.70;;;13.20;99.90;;;;;;5051998;28;20114;-32
2023/09/20 07:19:22;;;;;;;4.05;2.50;;;13.50;99.90;;;;;;5042022;28;20650;-28
2023/09/20 07:21:48;;;;;;;3.33;2.92;;;13.60;99.90;;;;;;5041103;28;20029;-32
2023/09/20 07:24:14;;;;;;;4.22;2.90;;;13.70;99.90;;;;;;5040458;28;20673;-31
2023/09/20 07:26:43;;;;;;;2.50;2.30;;;13.70;99.90;;;;;;5041525;28;20029;-31
2023/09/20 07:29:12;;;;;;;3.15;2.80;;;13.80;99.90;;;;;;5043248;28;20025;-33
2023/09/20 07:31:38;;;;;;;2.50;2.30;;;13.90;99.90;;;;;;5041905;28;20040;-34
2023/09/20 07:34:04;;;;;;;2.95;2.30;;;14.00;99.90;;;;;;5041493;28;20049;-32
2023/09/20 07:36:33;;;;;;;2.65;2.35;;;14.00;99.90;;;;;;5042347;28;20036;-31
2023/09/20 07:38:59;;;;;;;3.05;2.33;;;14.10;99.90;;;;;;5042398;28;20037;-34
2023/09/20 07:41:25;;;;;;;2.30;2.10;;;14.20;99.90;;;;;;5041025;28;20029;-32
2023/09/20 07:43:53;;;;;;;2.85;2.30;;;14.40;99.90;;;;;;5044750;28;20057;-34
2023/09/20 07:46:20;;;;;;;;;;;14.50;99.90;;;;;;5040937;28;20040;-34
2023/09/20 07:48:50;;;;;;;2.63;2.22;;;14.80;99.90;;;;;;5034785;28;20015;-36
2023/09/20 07:51:19;;;;;;;2.50;2.30;;;15.00;99.90;;;;;;5041428;28;20045;-34
2023/09/20 07:53:49;;;;;;;2.25;2.05;;;15.20;99.90;;;;;;5041973;28;20029;-41
2023/09/20 07:56:15;;;;;;;3.58;2.50;;;15.30;99.90;;;;;;5042744;28;20025;-40
2023/09/20 07:58:40;;;;;;;4.32;2.30;;;15.60;99.90;;;;;;5046300;28;20375;-40
2023/09/20 08:01:18;;;;;;;2.90;2.30;;;15.70;99.90;;;;;;5042194;28;20037;-40
2023/09/20 08:03:50;;;;;;;4.47;2.30;;;15.90;99.90;;;;;;5046260;28;20021;-33
2023/09/20 08:06:33;;;;;;;2.22;2.03;;;16.10;99.90;;;;;;5040671;28;20102;-33
2023/09/20 08:08:59;;;;;;;2.88;2.00;;;16.40;99.90;;;;;;5042708;28;20056;-32
2023/09/20 08:11:25;;;;;;;3.05;2.22;;;16.60;99.90;;;;;;5040215;28;20083;-33
2023/09/20 08:13:52;;;;;;;3.25;2.50;;;16.70;99.90;;;;;;5044312;28;20052;-33
2023/09/20 08:16:18;;;;;;;2.20;2.00;;;17.00;99.90;;;;;;5036029;28;20030;-34
2023/09/20 08:21:32;;;;;;;3.85;1.92;;;17.20;99.90;;;;;;5028904;28;20039;-34
2023/09/20 08:59:57;;;;;;;1.58;1.35;;;19.20;99.90;;;;;;5052583;28;20039;-34
2023/09/20 09:02:24;;;;;;;1.60;1.25;;;19.40;99.90;;;;;;5045090;28;20033;-33
2023/09/20 09:04:54;;;;;;;2.35;1.58;;;19.40;99.90;;;;;;5047847;28;20111;-32
2023/09/20 09:07:23;;;;;;;1.80;1.40;;;19.50;99.90;;;;;;5041480;28;20043;-32
2023/09/20 09:09:49;;;;;;;2.15;1.45;;;19.50;99.90;;;;;;5051462;28;20037;-34
2023/09/20 09:12:15;;;;;;;1.58;1.30;;;19.50;99.90;;;;;;5049047;28;20028;-35
2023/09/20 09:14:42;;;;;;;1.23;1.13;;;19.60;99.90;;;;;;5046043;28;20032;-40
2023/09/20 09:17:09;;;;;;;3.25;1.58;;;19.70;99.90;;;;;;5036398;28;20052;-35
2023/09/20 09:19:36;;;;;;;1.45;1.20;;;19.80;99.90;;;;;;5046685;28;20531;-39
2023/09/20 09:22:02;;;;;;;1.33;1.23;;;20.00;99.90;;;;;;5046212;28;20037;-39
2023/09/20 09:24:40;;;;;;;2.38;1.40;;;20.00;99.90;;;;;;5063261;28;20021;-40
2023/09/20 09:27:08;;;;;;;1.90;1.30;;;20.10;99.90;;;;;;5049915;28;20487;-40
2023/09/20 09:29:34;;;;;;;1.43;1.27;;;20.20;99.90;;;;;;5048356;28;20035;-38
2023/09/20 09:32:04;;;;;;;1.70;1.40;;;20.10;99.90;;;;;;5045024;28;20032;-40
2023/09/20 09:34:30;;;;;;;3.08;1.33;;;20.00;99.90;;;;;;5045908;28;20489;-38
2023/09/20 09:36:56;;;;;;;1.80;1.40;;;20.20;99.90;;;;;;5045034;28;20025;-37
2023/09/20 09:39:24;;;;;;;1.67;1.50;;;20.50;99.90;;;;;;5044503;28;20048;-40
2023/09/20 09:41:51;;;;;;;1.40;1.30;;;20.40;99.90;;;;;;5049920;28;20021;-40
2023/09/20 09:44:17;;;;;;;1.33;1.23;;;20.60;99.90;;;;;;5044917;28;20048;-40
2023/09/20 09:46:43;;;;;;;1.50;1.27;;;20.80;99.90;;;;;;5046978;28;20500;-38
2023/09/20 09:49:11;;;;;;;1.33;1.23;;;21.10;99.90;;;;;;5048190;28;20039;-36
2023/09/20 09:51:45;;;;;;;3.00;1.45;;;21.30;99.90;;;;;;5046666;28;20025;-39
2023/09/20 09:54:13;;;;;;;1.52;1.42;;;21.40;99.90;;;;;;5049050;28;20033;-37
2023/09/20 09:56:40;;;;;;;2.00;1.45;;;21.40;99.90;;;;;;5047565;28;20049;-38
2023/09/20 09:59:06;;;;;;;2.30;1.33;;;21.50;99.90;;;;;;5046577;28;20048;-39
2023/09/20 10:01:38;;;;;;;1.73;1.40;;;21.50;99.90;;;;;;5050120;28;20041;-38
2023/09/20 10:04:07;;;;;;;1.10;1.10;;;21.40;99.90;;;;;;5043855;28;20111;-38
2023/09/20 10:06:38;;;;;;;3.08;1.25;;;21.50;99.90;;;;;;5054743;28;20025;-39
2023/09/20 10:09:09;;;;;;;1.42;1.20;;;21.70;99.90;;;;;;5044726;28;20033;-39
2023/09/20 10:11:35;;;;;;;1.80;1.20;;;22.00;99.90;;;;;;5044500;28;20025;-40
2023/09/20 10:14:05;;;;;;;1.67;1.50;;;22.10;99.90;;;;;;5039126;28;20036;-30
2023/09/20 10:16:30;;;;;;;1.30;1.20;;;22.10;99.90;;;;;;5044543;28;20508;-34
2023/09/20 10:18:56;;;;;;;2.05;1.40;;;21.70;99.90;;;;;;5047351;28;20025;-29
2023/09/20 10:21:25;;;;;;;1.35;1.30;;;21.80;99.90;;;;;;5048631;28;20032;-30
2023/09/20 10:24:00;;;;;;;2.05;1.40;;;21.70;99.90;;;;;;5047867;28;20368;-36
2023/09/20 10:26:27;;;;;;;2.00;1.20;;;21.80;99.90;;;;;;5043684;28;20041;-33
2023/09/20 10:29:17;;;;;;;2.53;1.40;;;21.80;99.90;;;;;;5045186;28;20037;-41
2023/09/20 10:31:43;;;;;;;1.00;1.00;;;21.60;99.90;;;;;;5044354;28;20044;-37
2023/09/20 10:34:09;;;;;;;3.92;1.30;;;21.80;99.90;;;;;;5039920;28;20644;-35
2023/09/20 10:36:35;;;;;;;2.40;1.50;;;22.10;99.90;;;;;;5042437;28;20471;-40
2023/09/20 10:39:19;;;;;;;3.15;1.50;;;22.10;99.90;;;;;;5041305;28;20433;-39
2023/09/20 10:41:50;;;;;;;1.77;1.20;;;21.90;99.90;;;;;;5045359;28;20021;-40
2023/09/20 10:44:30;;;;;;;1.80;1.30;;;22.30;99.90;;;;;;5043171;28;20132;-40
2023/09/20 10:47:00;;;;;;;1.90;1.20;;;22.20;99.90;;;;;;5043999;28;20111;-34
2023/09/20 10:49:41;;;;;;;1.33;1.13;;;22.00;99.90;;;;;;5043680;28;20064;-39
2023/09/20 10:52:08;;;;;;;1.05;1.00;;;22.10;99.90;;;;;;5042444;28;20041;-35
2023/09/20 10:54:38;;;;;;;2.90;1.17;;;22.00;99.90;;;;;;5044066;28;20059;-36
2023/09/20 10:57:07;;;;;;;1.25;1.15;;;22.20;99.90;;;;;;5044121;28;20040;-40
2023/09/20 10:59:34;;;;;;;1.20;1.10;;;22.40;99.90;;;;;;5042839;28;20033;-39
2023/09/20 11:02:05;;;;;;;1.33;1.23;;;22.50;99.90;;;;;;5044684;28;20029;-39
2023/09/20 11:04:31;;;;;;;2.05;1.75;;;22.70;99.90;;;;;;5042409;28;20037;-41
2023/09/20 11:06:59;;;;;;;2.15;1.40;;;22.80;99.90;;;;;;5040091;28;20029;-34
2023/09/20 11:09:30;;;;;;;1.02;1.02;;;22.80;99.90;;;;;;5044996;28;20303;-40
2023/09/20 11:12:06;;;;;;;1.63;1.20;;;22.90;99.90;;;;;;5042147;28;20049;-40
2023/09/20 11:14:33;;;;;;;1.48;1.38;;;22.90;99.90;;;;;;5045450;28;20090;-40
2023/09/20 11:16:59;;;;;;;1.40;1.10;;;23.00;99.90;;;;;;5043323;28;20024;-37
2023/09/20 11:19:25;;;;;;;2.45;1.27;;;23.40;99.90;;;;;;5044186;28;20041;-39
2023/09/20 11:21:53;;;;;;;1.35;1.25;;;23.40;99.90;;;;;;5044749;28;20037;-40
2023/09/20 11:24:19;;;;;;;1.63;1.52;;;23.60;99.90;;;;;;5041815;28;20078;-29
2023/09/20 11:26:47;;;;;;;2.30;2.10;;;23.20;99.90;;;;;;5044705;28;20474;-35
2023/09/20 11:29:15;;;;;;;;;;;23.20;99.90;;;;;;5046835;28;20032;-31
2023/09/20 11:31:44;;;;;;;2.47;1.33;;;23.20;99.90;;;;;;5043684;28;19945;-32
2023/09/20 11:34:10;;;;;;;1.58;1.20;;;23.20;99.90;;;;;;5042014;28;20029;-39
2023/09/20 11:36:37;;;;;;;1.73;1.40;;;23.00;99.90;;;;;;5042906;28;20460;-40
2023/09/20 11:39:04;;;;;;;1.30;1.20;;;22.70;99.90;;;;;;5039772;28;20052;-37
2023/09/20 11:41:30;;;;;;;2.05;1.85;;;22.50;99.90;;;;;;5043144;28;20033;-40
2023/09/20 11:43:56;;;;;;;1.33;1.23;;;22.30;99.90;;;;;;5045920;28;20514;-36
2023/09/20 11:46:22;;;;;;;1.38;1.27;;;22.40;99.90;;;;;;5041000;28;20053;-39
2023/09/20 11:48:51;;;;;;;2.45;1.40;;;22.70;99.90;;;;;;5045652;28;20029;-39
2023/09/20 11:51:17;;;;;;;2.55;1.30;;;22.80;99.90;;;;;;5042206;28;20304;-37
2023/09/20 11:53:44;;;;;;;2.17;1.30;;;22.60;99.90;;;;;;5045179;28;20107;-39
2023/09/20 11:56:10;;;;;;;1.58;1.27;;;22.70;99.90;;;;;;5047801;28;20032;-36
2023/09/20 11:58:37;;;;;;;4.57;1.40;;;22.80;99.90;;;;;;5046968;28;20029;-39
2023/09/20 12:01:06;;;;;;;1.73;1.20;;;22.80;99.90;;;;;;5046585;28;20056;-38
2023/09/20 12:03:33;;;;;;;3.83;1.40;;;23.10;99.90;;;;;;5049065;28;20094;-40
2023/09/20 12:05:59;;;;;;;1.40;1.30;;;23.20;99.90;;;;;;5044555;28;20029;-35
2023/09/20 12:08:31;;;;;;;1.90;1.70;;;23.40;99.90;;;;;;5045035;28;20033;-39
2023/09/20 12:10:58;;;;;;;1.58;1.42;;;23.20;99.90;;;;;;5048703;28;20115;-35
2023/09/20 12:13:24;;;;;;;2.05;1.10;;;22.80;99.90;;;;;;5054108;28;20032;-39
2023/09/20 12:15:49;;;;;;;1.75;1.20;;;22.60;99.90;;;;;;5080805;28;20028;-39
2023/09/20 12:18:15;;;;;;;4.13;1.58;;;22.70;99.90;;;;;;5049993;28;20033;-39
2023/09/20 12:20:41;;;;;;;1.50;1.40;;;22.60;99.90;;;;;;5044931;28;20636;-39
2023/09/20 12:23:06;;;;;;;1.88;1.55;;;22.70;99.90;;;;;;5050994;28;20433;-39
2023/09/20 12:25:32;;;;;;;1.63;1.27;;;22.90;99.90;;;;;;5050623;28;20029;-39
2023/09/20 12:27:58;;;;;;;1.92;1.40;;;23.10;99.90;;;;;;5052668;28;20028;-39
2023/09/20 12:30:28;;;;;;;3.08;1.60;;;23.20;99.90;;;;;;5049137;28;20100;-40
2023/09/20 12:32:56;;;;;;;2.13;1.33;;;23.30;99.90;;;;;;5046516;28;20037;-39
2023/09/20 12:35:23;;;;;;;2.58;1.20;;;23.40;99.90;;;;;;5053770;28;20024;-39
2023/09/20 12:37:48;;;;;;;1.90;1.50;;;23.30;99.90;;;;;;5042434;28;20116;-39
2023/09/20 12:40:14;;;;;;;1.77;1.45;;;23.10;99.90;;;;;;5047837;28;20096;-40
2023/09/20 12:42:39;;;;;;;1.80;1.50;;;23.10;99.90;;;;;;5042679;28;20078;-40
2023/09/20 12:45:08;;;;;;;1.55;1.45;;;22.90;99.90;;;;;;5038592;28;20045;-33
2023/09/20 12:47:35;;;;;;;2.15;1.50;;;22.90;99.90;;;;;;5047150;28;20481;-33
2023/09/20 12:50:01;;;;;;;4.80;1.20;;;23.00;99.90;;;;;;5046648;28;20083;-32
2023/09/20 12:52:27;;;;;;;1.98;1.20;;;23.00;99.90;;;;;;5051608;28;20899;-32
2023/09/20 12:54:53;;;;;;;1.83;1.35;;;23.10;99.90;;;;;;5048740;28;20027;-34
2023/09/20 12:57:20;;;;;;;1.88;1.60;;;23.10;99.90;;;;;;5049507;28;20119;-31
2023/09/20 12:59:46;;;;;;;2.60;1.60;;;22.90;99.90;;;;;;5048494;28;20094;-33
2023/09/20 13:02:11;;;;;;;1.50;1.40;;;22.90;99.90;;;;;;5050286;28;20495;-32
2023/09/20 13:04:37;;;;;;;3.20;1.20;;;22.90;99.90;;;;;;5047720;28;20115;-32
2023/09/20 13:07:03;;;;;;;1.40;1.30;;;22.90;99.90;;;;;;5049003;28;20429;-33
2023/09/20 13:09:29;;;;;;;4.22;1.45;;;23.10;99.90;;;;;;5044502;28;20021;-37
2023/09/20 13:11:54;;;;;;;2.42;1.40;;;23.20;99.90;;;;;;5047568;28;20029;-38
2023/09/20 13:14:21;;;;;;;2.90;1.50;;;23.30;99.90;;;;;;5050514;28;20520;-33
2023/09/20 13:16:49;;;;;;;3.22;1.42;;;23.30;99.90;;;;;;5047746;28;20029;-34
2023/09/20 13:19:16;;;;;;;2.75;1.10;;;23.20;99.90;;;;;;5047899;28;20725;-35
2023/09/20 13:21:42;;;;;;;1.58;1.48;;;23.20;99.90;;;;;;5050234;28;20108;-33
2023/09/20 13:24:10;;;;;;;4.78;1.60;;;23.20;99.90;;;;;;5044518;28;20124;-32
2023/09/20 13:26:38;;;;;;;2.00;1.30;;;23.20;99.90;;;;;;5046429;28;20482;-32